createdAt,value
2019-02-20T00:00:29.040Z,95.83
2019-02-20T00:01:29.126Z,95.93
2019-02-20T00:02:29.214Z,95.74
2019-02-20T00:03:29.299Z,95.74
2019-02-20T00:04:29.389Z,95.93
2019-02-20T00:05:29.477Z,95.74
2019-02-20T00:06:29.559Z,96.02
2019-02-20T00:07:29.644Z,96.31
2019-02-20T00:08:29.733Z,96.31
2019-02-20T00:09:29.818Z,96.21
2019-02-20T00:10:29.907Z,96.31
2019-02-20T00:11:29.991Z,96.31
2019-02-20T00:12:30.078Z,96.50
2019-02-20T00:13:30.163Z,96.31
2019-02-20T00:14:30.249Z,96.50
2019-02-20T00:15:30.337Z,96.31
2019-02-20T00:16:30.425Z,96.31
2019-02-20T00:17:30.513Z,96.21
2019-02-20T00:18:30.606Z,96.21
2019-02-20T00:19:30.732Z,96.40
2019-02-20T00:20:30.772Z,96.12
2019-02-20T00:21:30.857Z,96.12
2019-02-20T00:22:39.803Z,96.12
2019-02-20T00:23:31.030Z,96.12
2019-02-20T00:24:31.117Z,96.31
2019-02-20T00:25:31.201Z,96.31
2019-02-20T00:26:31.286Z,96.50
2019-02-20T00:27:31.383Z,96.12
2019-02-20T00:28:31.454Z,96.21
2019-02-20T00:29:31.541Z,95.36
2019-02-20T00:30:31.628Z,95.74
2019-02-20T00:31:31.711Z,95.64
2019-02-20T00:32:31.796Z,95.74
2019-02-20T00:33:31.889Z,95.45
2019-02-20T00:34:31.995Z,95.74
2019-02-20T00:35:32.082Z,95.74
2019-02-20T00:36:32.168Z,95.74
2019-02-20T00:37:32.257Z,95.93
2019-02-20T00:38:32.342Z,95.93
2019-02-20T00:39:32.434Z,96.02
2019-02-20T00:40:32.516Z,96.21
2019-02-20T00:41:32.606Z,96.21
2019-02-20T00:42:32.688Z,96.31
2019-02-20T00:43:32.772Z,96.21
2019-02-20T00:44:32.860Z,96.12
2019-02-20T00:45:32.945Z,95.74
2019-02-20T00:46:33.032Z,95.93
2019-02-20T00:47:33.118Z,95.64
2019-02-20T00:48:33.202Z,95.64
2019-02-20T00:49:33.291Z,95.93
2019-02-20T00:50:33.375Z,95.64
2019-02-20T00:51:33.463Z,95.26
2019-02-20T00:52:33.548Z,95.45
2019-02-20T00:53:33.635Z,95.55
2019-02-20T00:54:33.714Z,95.36
2019-02-20T00:55:33.810Z,95.64
2019-02-20T00:56:33.895Z,95.64
2019-02-20T00:57:33.990Z,96.31
2019-02-20T00:58:34.064Z,96.31
2019-02-20T00:59:34.165Z,96.50
2019-02-20T01:00:34.239Z,96.45
2019-02-20T01:01:34.333Z,96.54
2019-02-20T01:02:34.420Z,96.64
2019-02-20T01:03:34.504Z,97.30
2019-02-20T01:04:34.593Z,97.25
2019-02-20T01:05:34.674Z,97.34
2019-02-20T01:06:34.760Z,96.78
2019-02-20T01:07:34.850Z,96.50
2019-02-20T01:08:34.931Z,96.69
2019-02-20T01:09:35.018Z,96.69
2019-02-20T01:10:35.101Z,96.54
2019-02-20T01:11:35.188Z,96.73
2019-02-20T01:12:35.273Z,96.69
2019-02-20T01:13:35.360Z,96.54
2019-02-20T01:14:35.451Z,97.30
2019-02-20T01:15:35.540Z,96.73
2019-02-20T01:16:35.628Z,96.83
2019-02-20T01:17:35.719Z,96.59
2019-02-20T01:18:35.804Z,96.88
2019-02-20T01:19:35.884Z,97.30
2019-02-20T01:20:35.975Z,97.11
2019-02-20T01:21:36.054Z,96.64
2019-02-20T01:22:36.137Z,96.64
2019-02-20T01:23:36.221Z,96.83
2019-02-20T01:24:36.314Z,96.78
2019-02-20T01:25:36.399Z,96.69
2019-02-20T01:26:36.490Z,96.40
2019-02-20T01:27:36.578Z,96.40
2019-02-20T01:28:36.656Z,96.12
2019-02-20T01:29:36.741Z,95.93
2019-02-20T01:30:36.830Z,95.64
2019-02-20T01:31:36.912Z,95.74
2019-02-20T01:32:37.001Z,95.83
2019-02-20T01:33:37.088Z,95.83
2019-02-20T01:34:37.175Z,96.02
2019-02-20T01:35:37.263Z,95.74
2019-02-20T01:36:37.351Z,95.74
2019-02-20T01:37:37.433Z,95.55
2019-02-20T01:38:37.517Z,95.45
2019-02-20T01:39:37.604Z,95.45
2019-02-20T01:40:37.688Z,95.45
2019-02-20T01:41:37.801Z,95.64
2019-02-20T01:42:37.888Z,95.31
2019-02-20T01:43:37.980Z,95.40
2019-02-20T01:44:38.071Z,95.12
2019-02-20T01:45:38.161Z,95.21
2019-02-20T01:46:38.242Z,95.50
2019-02-20T01:47:38.326Z,95.17
2019-02-20T01:48:38.415Z,95.36
2019-02-20T01:49:38.498Z,95.12
2019-02-20T01:50:38.585Z,94.79
2019-02-20T01:51:38.670Z,94.79
2019-02-20T01:52:38.754Z,94.56
2019-02-20T01:53:38.843Z,94.79
2019-02-20T01:54:38.925Z,94.89
2019-02-20T01:55:39.012Z,94.93
2019-02-20T01:56:39.095Z,94.84
2019-02-20T01:57:39.180Z,94.84
2019-02-20T01:58:39.265Z,95.21
2019-02-20T01:59:39.357Z,95.21
2019-02-20T02:00:39.449Z,94.79
2019-02-20T02:01:39.531Z,94.84
2019-02-20T02:02:39.611Z,94.93
2019-02-20T02:03:39.699Z,94.37
2019-02-20T02:04:39.783Z,94.46
2019-02-20T02:05:39.869Z,94.37
2019-02-20T02:06:39.955Z,95.12
2019-02-20T02:07:40.039Z,94.93
2019-02-20T02:08:40.122Z,94.27
2019-02-20T02:09:40.207Z,94.65
2019-02-20T02:10:40.297Z,94.56
2019-02-20T02:11:40.385Z,94.46
2019-02-20T02:12:40.466Z,94.79
2019-02-20T02:13:40.571Z,93.99
2019-02-20T02:14:40.636Z,94.46
2019-02-20T02:15:40.720Z,94.37
2019-02-20T02:16:40.805Z,94.89
2019-02-20T02:17:40.890Z,94.37
2019-02-20T02:18:40.981Z,94.65
2019-02-20T02:19:41.068Z,95.07
2019-02-20T02:20:41.151Z,94.56
2019-02-20T02:21:41.235Z,94.84
2019-02-20T02:22:41.320Z,94.93
2019-02-20T02:23:41.409Z,94.60
2019-02-20T02:24:41.494Z,94.37
2019-02-20T02:25:41.577Z,94.84
2019-02-20T02:26:41.665Z,94.51
2019-02-20T02:27:41.748Z,94.65
2019-02-20T02:28:41.834Z,94.98
2019-02-20T02:29:41.921Z,94.70
2019-02-20T02:30:42.001Z,94.04
2019-02-20T02:31:42.086Z,94.51
2019-02-20T02:32:42.172Z,94.51
2019-02-20T02:33:42.258Z,94.56
2019-02-20T02:34:42.341Z,94.98
2019-02-20T02:35:42.429Z,94.37
2019-02-20T02:36:42.518Z,94.60
2019-02-20T02:37:42.603Z,94.89
2019-02-20T02:38:42.691Z,95.07
2019-02-20T02:39:42.777Z,93.94
2019-02-20T02:40:42.863Z,94.13
2019-02-20T02:41:44.783Z,94.04
2019-02-20T02:42:43.043Z,93.94
2019-02-20T02:43:43.140Z,93.94
2019-02-20T02:44:43.217Z,94.98
2019-02-20T02:45:43.298Z,94.51
2019-02-20T02:46:43.387Z,94.98
2019-02-20T02:47:43.475Z,94.04
2019-02-20T02:48:43.567Z,94.23
2019-02-20T02:49:43.649Z,93.85
2019-02-20T02:50:43.734Z,93.94
2019-02-20T02:51:43.821Z,94.51
2019-02-20T02:52:43.911Z,94.37
2019-02-20T02:53:43.995Z,94.08
2019-02-20T02:54:44.094Z,94.13
2019-02-20T02:55:44.171Z,93.94
2019-02-20T02:56:44.255Z,94.08
2019-02-20T02:57:44.336Z,93.66
2019-02-20T02:58:44.432Z,93.94
2019-02-20T02:59:44.528Z,93.66
2019-02-20T03:00:51.784Z,94.37
2019-02-20T03:01:44.730Z,94.56
2019-02-20T03:02:44.814Z,93.89
2019-02-20T03:03:44.899Z,94.18
2019-02-20T03:04:44.983Z,94.27
2019-02-20T03:05:45.070Z,93.89
2019-02-20T03:06:45.158Z,94.56
2019-02-20T03:07:45.245Z,95.03
2019-02-20T03:08:45.333Z,94.93
2019-02-20T03:09:45.426Z,95.03
2019-02-20T03:10:45.506Z,95.12
2019-02-20T03:11:45.590Z,94.46
2019-02-20T03:12:45.676Z,94.65
2019-02-20T03:13:45.762Z,94.74
2019-02-20T03:14:45.843Z,94.56
2019-02-20T03:15:45.930Z,95.12
2019-02-20T03:16:46.016Z,94.56
2019-02-20T03:17:46.151Z,95.03
2019-02-20T03:18:46.189Z,95.40
2019-02-20T03:19:46.275Z,95.31
2019-02-20T03:20:46.358Z,95.31
2019-02-20T03:21:46.461Z,95.40
2019-02-20T03:22:46.534Z,95.21
2019-02-20T03:23:46.613Z,94.84
2019-02-20T03:24:46.698Z,95.12
2019-02-20T03:25:46.782Z,94.84
2019-02-20T03:26:46.875Z,94.74
2019-02-20T03:27:46.953Z,94.93
2019-02-20T03:28:47.042Z,94.93
2019-02-20T03:29:47.129Z,95.03
2019-02-20T03:30:47.246Z,94.08
2019-02-20T03:31:47.297Z,94.65
2019-02-20T03:32:47.388Z,94.56
2019-02-20T03:33:47.476Z,95.12
2019-02-20T03:34:47.556Z,94.84
2019-02-20T03:35:47.642Z,95.03
2019-02-20T03:36:47.723Z,94.65
2019-02-20T03:37:47.808Z,95.03
2019-02-20T03:38:47.892Z,95.03
2019-02-20T03:39:47.980Z,95.31
2019-02-20T03:40:48.063Z,95.31
2019-02-20T03:41:49.044Z,95.31
2019-02-20T03:42:48.235Z,95.03
2019-02-20T03:43:48.318Z,95.12
2019-02-20T03:44:48.402Z,95.31
2019-02-20T03:45:48.486Z,95.21
2019-02-20T03:46:48.568Z,94.74
2019-02-20T03:47:48.655Z,94.93
2019-02-20T03:48:48.738Z,95.03
2019-02-20T03:49:48.824Z,95.40
2019-02-20T03:50:48.911Z,95.59
2019-02-20T03:51:48.996Z,95.21
2019-02-20T03:52:49.089Z,95.03
2019-02-20T03:53:51.891Z,95.12
2019-02-20T03:54:49.258Z,95.03
2019-02-20T03:55:49.339Z,95.31
2019-02-20T03:56:49.430Z,95.31
2019-02-20T03:57:49.511Z,95.21
2019-02-20T03:58:49.600Z,95.31
2019-02-20T03:59:49.681Z,95.03
2019-02-20T04:00:49.767Z,95.31
2019-02-20T04:01:49.848Z,95.12
2019-02-20T04:02:49.936Z,94.74
2019-02-20T04:03:50.022Z,94.84
2019-02-20T04:04:50.113Z,95.12
2019-02-20T04:05:50.190Z,94.84
2019-02-20T04:06:50.277Z,95.03
2019-02-20T04:07:50.359Z,95.03
2019-02-20T04:08:50.442Z,95.31
2019-02-20T04:09:50.528Z,95.12
2019-02-20T04:10:50.610Z,95.21
2019-02-20T04:11:50.698Z,95.31
2019-02-20T04:12:50.783Z,95.31
2019-02-20T04:13:50.886Z,95.31
2019-02-20T04:14:50.951Z,95.50
2019-02-20T04:15:51.040Z,95.03
2019-02-20T04:16:51.134Z,94.93
2019-02-20T04:17:51.222Z,94.84
2019-02-20T04:18:51.311Z,94.84
2019-02-20T04:19:51.396Z,94.37
2019-02-20T04:20:51.483Z,94.56
2019-02-20T04:21:51.567Z,94.56
2019-02-20T04:22:51.652Z,94.46
2019-02-20T04:24:01.602Z,94.70
2019-02-20T04:24:51.826Z,94.70
2019-02-20T04:25:51.911Z,94.79
2019-02-20T04:26:51.997Z,94.60
2019-02-20T04:27:52.079Z,94.51
2019-02-20T04:28:52.165Z,94.32
2019-02-20T04:29:52.253Z,94.51
2019-02-20T04:30:52.346Z,94.32
2019-02-20T04:31:52.434Z,94.79
2019-02-20T04:32:52.519Z,94.89
2019-02-20T04:33:52.607Z,93.94
2019-02-20T04:34:52.694Z,94.23
2019-02-20T04:35:52.785Z,94.32
2019-02-20T04:36:52.864Z,94.32
2019-02-20T04:37:52.951Z,94.13
2019-02-20T04:38:53.044Z,94.13
2019-02-20T04:39:53.123Z,94.13
2019-02-20T04:40:53.212Z,94.32
2019-02-20T04:41:53.301Z,94.13
2019-02-20T04:42:53.385Z,93.94
2019-02-20T04:43:53.474Z,94.13
2019-02-20T04:44:53.563Z,94.13
2019-02-20T04:45:53.657Z,94.32
2019-02-20T04:46:53.735Z,94.04
2019-02-20T04:47:53.823Z,94.23
2019-02-20T04:48:53.911Z,93.94
2019-02-20T04:49:54.014Z,94.51
2019-02-20T04:50:54.106Z,94.51
2019-02-20T04:51:54.193Z,94.60
2019-02-20T04:52:54.277Z,94.13
2019-02-20T04:53:54.367Z,94.04
2019-02-20T04:54:54.450Z,93.94
2019-02-20T04:55:54.537Z,93.94
2019-02-20T04:56:54.626Z,94.13
2019-02-20T04:57:54.703Z,94.32
2019-02-20T04:58:54.802Z,94.70
2019-02-20T04:59:54.886Z,94.42
2019-02-20T05:00:54.966Z,93.94
2019-02-20T05:01:55.053Z,94.32
2019-02-20T05:02:55.140Z,93.75
2019-02-20T05:03:55.235Z,94.42
2019-02-20T05:04:55.318Z,93.47
2019-02-20T05:05:55.407Z,93.94
2019-02-20T05:06:55.492Z,93.75
2019-02-20T05:07:55.577Z,93.75
2019-02-20T05:08:55.663Z,94.13
2019-02-20T05:09:55.747Z,93.94
2019-02-20T05:10:55.846Z,94.32
2019-02-20T05:11:55.937Z,93.85
2019-02-20T05:12:56.002Z,94.23
2019-02-20T05:13:56.093Z,94.51
2019-02-20T05:14:56.179Z,94.42
2019-02-20T05:15:56.280Z,94.13
2019-02-20T05:16:56.349Z,94.60
2019-02-20T05:17:56.435Z,94.32
2019-02-20T05:18:56.522Z,94.23
2019-02-20T05:19:56.613Z,93.85
2019-02-20T05:20:56.694Z,94.32
2019-02-20T05:21:56.779Z,94.04
2019-02-20T05:22:56.870Z,94.13
2019-02-20T05:23:56.964Z,94.60
2019-02-20T05:24:57.044Z,94.51
2019-02-20T05:25:57.164Z,94.70
2019-02-20T05:26:57.227Z,95.36
2019-02-20T05:27:57.322Z,95.17
2019-02-20T05:28:57.393Z,95.07
2019-02-20T05:29:57.483Z,95.07
2019-02-20T05:30:57.630Z,95.45
2019-02-20T05:31:57.659Z,95.45
2019-02-20T05:32:57.745Z,95.07
2019-02-20T05:33:57.832Z,94.98
2019-02-20T05:34:57.914Z,94.89
2019-02-20T05:35:58.004Z,94.98
2019-02-20T05:36:58.097Z,95.17
2019-02-20T05:37:58.190Z,95.07
2019-02-20T05:38:58.272Z,94.79
2019-02-20T05:39:58.359Z,94.89
2019-02-20T05:40:58.442Z,95.17
2019-02-20T05:41:58.581Z,95.07
2019-02-20T05:42:58.613Z,94.79
2019-02-20T05:43:58.703Z,94.79
2019-02-20T05:44:58.795Z,94.79
2019-02-20T05:45:58.880Z,94.89
2019-02-20T05:46:58.966Z,94.98
2019-02-20T05:47:59.051Z,94.98
2019-02-20T05:48:59.137Z,94.89
2019-02-20T05:49:59.230Z,94.98
2019-02-20T05:50:59.319Z,95.21
2019-02-20T05:51:59.402Z,95.03
2019-02-20T05:52:59.495Z,94.93
2019-02-20T05:53:59.581Z,95.69
2019-02-20T05:54:59.668Z,95.97
2019-02-20T05:55:59.749Z,96.16
2019-02-20T05:56:59.842Z,96.45
2019-02-20T05:57:59.927Z,96.16
2019-02-20T05:59:00.016Z,96.83
2019-02-20T06:00:00.107Z,97.30
2019-02-20T06:01:00.189Z,97.02
2019-02-20T06:02:00.318Z,97.20
2019-02-20T06:03:00.436Z,97.68
2019-02-20T06:04:00.493Z,97.58
2019-02-20T06:05:00.579Z,97.39
2019-02-20T06:06:00.672Z,97.20
2019-02-20T06:07:00.750Z,96.92
2019-02-20T06:08:00.838Z,97.49
2019-02-20T06:09:00.924Z,96.64
2019-02-20T06:10:01.011Z,96.54
2019-02-20T06:11:01.097Z,96.73
2019-02-20T06:12:01.184Z,96.73
2019-02-20T06:13:01.278Z,97.02
2019-02-20T06:14:01.359Z,97.58
2019-02-20T06:15:01.446Z,97.20
2019-02-20T06:16:01.564Z,97.58
2019-02-20T06:17:01.650Z,97.58
2019-02-20T06:18:01.743Z,97.49
2019-02-20T06:19:01.826Z,97.49
2019-02-20T06:20:01.910Z,96.73
2019-02-20T06:21:01.998Z,96.54
2019-02-20T06:22:02.090Z,96.83
2019-02-20T06:23:02.175Z,96.73
2019-02-20T06:24:02.265Z,96.73
2019-02-20T06:25:02.347Z,96.54
2019-02-20T06:26:02.513Z,96.45
2019-02-20T06:27:02.525Z,96.64
2019-02-20T06:28:02.619Z,96.54
2019-02-20T06:29:02.703Z,96.35
2019-02-20T06:30:02.784Z,96.16
2019-02-20T06:31:02.872Z,96.26
2019-02-20T06:32:02.961Z,96.26
2019-02-20T06:33:03.049Z,95.78
2019-02-20T06:34:03.141Z,96.16
2019-02-20T06:35:03.232Z,96.16
2019-02-20T06:36:03.318Z,96.35
2019-02-20T06:37:03.412Z,96.16
2019-02-20T06:38:03.496Z,96.16
2019-02-20T06:39:03.579Z,96.26
2019-02-20T06:40:03.672Z,96.26
2019-02-20T06:41:03.744Z,96.16
2019-02-20T06:42:03.842Z,96.07
2019-02-20T06:43:03.935Z,96.26
2019-02-20T06:44:04.016Z,96.45
2019-02-20T06:45:04.104Z,96.26
2019-02-20T06:46:04.192Z,96.07
2019-02-20T06:47:04.282Z,96.21
2019-02-20T06:48:04.369Z,95.74
2019-02-20T06:49:04.454Z,95.40
2019-02-20T06:50:04.542Z,95.59
2019-02-20T06:51:04.634Z,95.83
2019-02-20T06:52:04.716Z,95.97
2019-02-20T06:53:04.822Z,96.16
2019-02-20T06:54:04.904Z,95.93
2019-02-20T06:55:04.991Z,95.93
2019-02-20T06:56:05.079Z,95.74
2019-02-20T06:57:05.169Z,95.64
2019-02-20T06:58:05.263Z,95.83
2019-02-20T06:59:05.342Z,96.02
2019-02-20T07:00:05.431Z,96.02
2019-02-20T07:01:05.516Z,96.02
2019-02-20T07:02:05.607Z,95.93
2019-02-20T07:03:05.686Z,95.83
2019-02-20T07:04:05.782Z,96.02
2019-02-20T07:05:05.867Z,95.55
2019-02-20T07:06:05.973Z,96.02
2019-02-20T07:07:06.052Z,95.64
2019-02-20T07:08:06.131Z,95.83
2019-02-20T07:09:06.217Z,96.02
2019-02-20T07:10:06.304Z,96.12
2019-02-20T07:11:06.393Z,95.93
2019-02-20T07:12:06.518Z,95.83
2019-02-20T07:13:06.564Z,95.64
2019-02-20T07:14:06.651Z,95.55
2019-02-20T07:15:06.738Z,95.64
2019-02-20T07:16:06.827Z,95.36
2019-02-20T07:17:06.915Z,95.26
2019-02-20T07:18:07.007Z,95.74
2019-02-20T07:19:07.094Z,95.36
2019-02-20T07:20:07.179Z,95.17
2019-02-20T07:21:07.276Z,95.17
2019-02-20T07:22:07.366Z,94.79
2019-02-20T07:23:07.453Z,95.07
2019-02-20T07:24:07.542Z,94.70
2019-02-20T07:25:07.629Z,94.70
2019-02-20T07:26:07.716Z,95.26
2019-02-20T07:27:07.801Z,95.31
2019-02-20T07:28:07.889Z,95.22
2019-02-20T07:29:07.982Z,95.03
2019-02-20T07:30:08.073Z,94.84
2019-02-20T07:31:08.166Z,95.22
2019-02-20T07:32:08.250Z,95.22
2019-02-20T07:33:08.339Z,94.46
2019-02-20T07:34:08.429Z,94.84
2019-02-20T07:35:08.516Z,95.12
2019-02-20T07:36:08.609Z,95.22
2019-02-20T07:37:08.735Z,94.65
2019-02-20T07:38:08.770Z,94.65
2019-02-20T07:39:08.865Z,94.65
2019-02-20T07:40:08.953Z,94.93
2019-02-20T07:41:09.033Z,94.08
2019-02-20T07:42:09.125Z,94.37
2019-02-20T07:43:09.214Z,94.46
2019-02-20T07:44:09.297Z,94.65
2019-02-20T07:45:09.379Z,94.65
2019-02-20T07:46:09.468Z,94.46
2019-02-20T07:47:09.567Z,94.93
2019-02-20T07:48:09.655Z,94.18
2019-02-20T07:49:09.730Z,94.27
2019-02-20T07:50:09.816Z,94.08
2019-02-20T07:51:09.912Z,94.04
2019-02-20T07:52:10.002Z,93.89
2019-02-20T07:53:10.091Z,93.84
2019-02-20T07:54:10.180Z,93.94
2019-02-20T07:55:13.322Z,94.04
2019-02-20T07:56:10.350Z,93.94
2019-02-20T07:57:10.440Z,93.46
2019-02-20T07:58:10.526Z,93.65
2019-02-20T07:59:10.650Z,93.27
2019-02-20T08:00:10.706Z,93.46
2019-02-20T08:01:10.794Z,93.18
2019-02-20T08:02:10.879Z,93.37
2019-02-20T08:03:10.969Z,93.08
2019-02-20T08:04:11.054Z,93.56
2019-02-20T08:05:11.143Z,93.37
2019-02-20T08:06:11.232Z,93.37
2019-02-20T08:07:11.324Z,92.99
2019-02-20T08:08:11.414Z,92.99
2019-02-20T08:09:11.502Z,93.27
2019-02-20T08:10:11.597Z,93.08
2019-02-20T08:11:11.716Z,93.46
2019-02-20T08:12:11.757Z,92.99
2019-02-20T08:13:11.872Z,93.37
2019-02-20T08:14:11.955Z,93.37
2019-02-20T08:15:12.042Z,93.18
2019-02-20T08:16:12.183Z,93.37
2019-02-20T08:17:12.266Z,93.27
2019-02-20T08:18:12.351Z,93.27
2019-02-20T08:19:12.433Z,93.08
2019-02-20T08:20:12.525Z,93.08
2019-02-20T08:21:12.615Z,93.27
2019-02-20T08:22:12.698Z,93.37
2019-02-20T08:23:12.789Z,92.99
2019-02-20T08:24:12.880Z,93.32
2019-02-20T08:25:22.236Z,93.61
2019-02-20T08:26:13.059Z,93.61
2019-02-20T08:27:13.147Z,93.04
2019-02-20T08:28:13.238Z,92.94
2019-02-20T08:29:13.330Z,93.04
2019-02-20T08:30:13.420Z,93.13
2019-02-20T08:31:13.506Z,92.76
2019-02-20T08:32:13.595Z,92.76
2019-02-20T08:33:13.686Z,92.85
2019-02-20T08:34:13.773Z,93.13
2019-02-20T08:35:13.861Z,92.76
2019-02-20T08:36:13.969Z,92.38
2019-02-20T08:37:14.039Z,92.38
2019-02-20T08:38:14.130Z,92.18
2019-02-20T08:39:14.218Z,92.47
2019-02-20T08:40:14.307Z,91.99
2019-02-20T08:41:14.395Z,92.38
2019-02-20T08:42:14.485Z,92.57
2019-02-20T08:43:14.575Z,92.47
2019-02-20T08:44:14.664Z,93.18
2019-02-20T08:45:14.753Z,92.90
2019-02-20T08:46:14.835Z,92.90
2019-02-20T08:47:14.920Z,92.33
2019-02-20T08:48:15.007Z,92.61
2019-02-20T08:49:15.100Z,92.23
2019-02-20T08:50:16.774Z,91.94
2019-02-20T08:51:15.276Z,91.94
2019-02-20T08:52:15.362Z,91.66
2019-02-20T08:53:15.452Z,90.90
2019-02-20T08:54:15.541Z,91.09
2019-02-20T08:55:15.628Z,91.28
2019-02-20T08:56:15.720Z,90.81
2019-02-20T08:57:15.814Z,90.33
2019-02-20T08:58:15.896Z,90.81
2019-02-20T08:59:16.002Z,90.43
2019-02-20T09:00:16.075Z,90.43
2019-02-20T09:01:16.171Z,90.43
2019-02-20T09:02:24.963Z,90.05
2019-02-20T09:03:16.302Z,90.33
2019-02-20T09:04:16.433Z,90.33
2019-02-20T09:05:16.485Z,90.14
2019-02-20T09:06:16.575Z,90.05
2019-02-20T09:07:16.667Z,89.95
2019-02-20T09:08:16.760Z,90.24
2019-02-20T09:09:16.844Z,90.33
2019-02-20T09:10:17.493Z,90.43
2019-02-20T09:11:17.025Z,90.81
2019-02-20T09:12:17.115Z,90.62
2019-02-20T09:13:17.203Z,91.00
2019-02-20T09:14:17.297Z,91.00
2019-02-20T09:15:17.399Z,91.00
2019-02-20T09:16:17.479Z,91.24
2019-02-20T09:17:17.570Z,90.95
2019-02-20T09:18:17.659Z,91.04
2019-02-20T09:19:17.749Z,90.85
2019-02-20T09:20:17.837Z,90.85
2019-02-20T09:21:17.927Z,90.38
2019-02-20T09:22:18.017Z,90.66
2019-02-20T09:23:18.107Z,90.09
2019-02-20T09:24:18.197Z,90.19
2019-02-20T09:25:20.091Z,90.47
2019-02-20T09:26:18.386Z,90.19
2019-02-20T09:27:18.461Z,90.28
2019-02-20T09:28:18.540Z,89.81
2019-02-20T09:29:18.630Z,89.81
2019-02-20T09:30:18.737Z,89.90
2019-02-20T09:31:18.805Z,89.90
2019-02-20T09:32:18.889Z,89.43
2019-02-20T09:33:18.980Z,89.19
2019-02-20T09:34:19.058Z,89.47
2019-02-20T09:35:19.147Z,89.57
2019-02-20T09:36:19.239Z,89.38
2019-02-20T09:37:19.333Z,89.09
2019-02-20T09:38:19.423Z,88.71
2019-02-20T09:39:19.510Z,89.00
2019-02-20T09:40:19.602Z,88.81
2019-02-20T09:41:19.717Z,88.90
2019-02-20T09:42:19.812Z,88.43
2019-02-20T09:43:19.902Z,89.19
2019-02-20T09:44:19.993Z,88.76
2019-02-20T09:45:20.083Z,88.57
2019-02-20T09:46:20.175Z,88.09
2019-02-20T09:47:20.263Z,87.52
2019-02-20T09:48:20.346Z,87.43
2019-02-20T09:49:20.438Z,87.43
2019-02-20T09:50:20.525Z,87.34
2019-02-20T09:51:20.619Z,87.05
2019-02-20T09:52:20.716Z,86.76
2019-02-20T09:53:20.801Z,86.76
2019-02-20T09:54:20.889Z,86.19
2019-02-20T09:55:20.980Z,86.61
2019-02-20T09:56:21.062Z,85.76
2019-02-20T09:57:21.161Z,85.72
2019-02-20T09:58:21.257Z,85.86
2019-02-20T09:59:21.369Z,85.38
2019-02-20T10:00:21.472Z,84.91
2019-02-20T10:01:21.549Z,84.62
2019-02-20T10:02:21.637Z,84.52
2019-02-20T10:03:21.727Z,84.81
2019-02-20T10:04:21.817Z,84.81
2019-02-20T10:05:21.908Z,84.47
2019-02-20T10:06:21.996Z,84.38
2019-02-20T10:07:22.086Z,84.09
2019-02-20T10:08:22.178Z,85.04
2019-02-20T10:09:22.284Z,84.85
2019-02-20T10:10:22.372Z,83.90
2019-02-20T10:11:22.471Z,84.28
2019-02-20T10:12:22.556Z,84.19
2019-02-20T10:13:22.647Z,84.09
2019-02-20T10:14:22.741Z,84.00
2019-02-20T10:15:22.831Z,84.09
2019-02-20T10:16:22.926Z,83.52
2019-02-20T10:17:23.009Z,83.62
2019-02-20T10:18:23.101Z,83.71
2019-02-20T10:19:23.220Z,83.28
2019-02-20T10:20:23.284Z,83.42
2019-02-20T10:21:23.378Z,83.37
2019-02-20T10:22:23.472Z,83.75
2019-02-20T10:23:23.554Z,82.76
2019-02-20T10:24:23.648Z,82.80
2019-02-20T10:25:23.733Z,82.61
2019-02-20T10:26:23.827Z,82.23
2019-02-20T10:27:23.913Z,82.14
2019-02-20T10:28:24.010Z,82.23
2019-02-20T10:29:24.100Z,82.32
2019-02-20T10:30:24.199Z,82.14
2019-02-20T10:31:24.282Z,81.66
2019-02-20T10:32:24.376Z,81.47
2019-02-20T10:33:24.464Z,81.66
2019-02-20T10:34:24.557Z,81.66
2019-02-20T10:35:24.648Z,81.76
2019-02-20T10:36:24.735Z,81.76
2019-02-20T10:37:24.826Z,81.76
2019-02-20T10:38:24.918Z,81.23
2019-02-20T10:39:25.009Z,81.18
2019-02-20T10:40:25.099Z,81.13
2019-02-20T10:41:25.186Z,81.13
2019-02-20T10:42:25.281Z,80.65
2019-02-20T10:43:25.367Z,80.27
2019-02-20T10:44:25.460Z,80.55
2019-02-20T10:45:25.551Z,80.18
2019-02-20T10:46:25.646Z,80.46
2019-02-20T10:47:25.742Z,80.18
2019-02-20T10:48:25.835Z,79.41
2019-02-20T10:49:25.928Z,80.18
2019-02-20T10:50:26.014Z,79.32
2019-02-20T10:51:26.111Z,79.03
2019-02-20T10:52:26.206Z,78.94
2019-02-20T10:53:26.306Z,78.94
2019-02-20T10:54:26.384Z,78.94
2019-02-20T10:55:26.472Z,79.22
2019-02-20T10:56:26.569Z,78.98
2019-02-20T10:57:26.659Z,79.32
2019-02-20T10:58:26.750Z,79.13
2019-02-20T10:59:26.840Z,79.83
2019-02-20T11:00:26.935Z,80.12
2019-02-20T11:01:27.019Z,80.12
2019-02-20T11:02:27.108Z,79.55
2019-02-20T11:03:27.196Z,79.13
2019-02-20T11:04:27.292Z,79.27
2019-02-20T11:05:27.388Z,78.88
2019-02-20T11:06:27.477Z,78.50
2019-02-20T11:07:27.570Z,78.31
2019-02-20T11:08:27.674Z,78.03
2019-02-20T11:09:27.751Z,78.31
2019-02-20T11:10:27.846Z,78.50
2019-02-20T11:11:27.937Z,78.78
2019-02-20T11:12:28.028Z,78.12
2019-02-20T11:13:28.119Z,78.12
2019-02-20T11:14:28.210Z,78.22
2019-02-20T11:15:28.306Z,78.41
2019-02-20T11:16:28.400Z,78.12
2019-02-20T11:17:28.496Z,77.55
2019-02-20T11:18:28.588Z,77.36
2019-02-20T11:19:28.753Z,77.36
2019-02-20T11:20:28.716Z,77.49
2019-02-20T11:21:28.815Z,76.82
2019-02-20T11:22:28.899Z,76.64
2019-02-20T11:23:28.994Z,76.73
2019-02-20T11:24:29.086Z,76.54
2019-02-20T11:25:29.177Z,76.64
2019-02-20T11:26:29.271Z,76.54
2019-02-20T11:27:29.364Z,76.82
2019-02-20T11:28:29.460Z,76.64
2019-02-20T11:29:29.554Z,76.54
2019-02-20T11:30:29.642Z,75.49
2019-02-20T11:31:29.735Z,75.87
2019-02-20T11:32:29.824Z,75.96
2019-02-20T11:33:29.915Z,75.78
2019-02-20T11:34:30.031Z,75.49
2019-02-20T11:35:30.132Z,75.30
2019-02-20T11:36:30.220Z,75.30
2019-02-20T11:37:30.321Z,75.30
2019-02-20T11:38:30.942Z,74.73
2019-02-20T11:39:37.475Z,74.06
2019-02-20T11:40:30.594Z,74.25
2019-02-20T11:41:30.682Z,74.63
2019-02-20T11:42:30.778Z,74.92
2019-02-20T11:43:30.868Z,74.54
2019-02-20T11:44:30.964Z,74.73
2019-02-20T11:45:31.057Z,73.68
2019-02-20T11:46:31.154Z,73.72
2019-02-20T11:47:31.254Z,73.77
2019-02-20T11:48:31.349Z,73.77
2019-02-20T11:49:31.441Z,74.50
2019-02-20T11:50:31.628Z,75.11
2019-02-20T11:51:31.592Z,75.78
2019-02-20T11:52:38.183Z,75.30
2019-02-20T11:53:37.242Z,74.92
2019-02-20T11:54:31.863Z,74.73
2019-02-20T11:55:31.955Z,74.35
2019-02-20T11:56:32.050Z,74.54
2019-02-20T11:57:32.142Z,74.54
2019-02-20T11:58:32.236Z,73.87
2019-02-20T11:59:32.327Z,73.77
2019-02-20T12:00:32.420Z,73.81
2019-02-20T12:01:32.511Z,74.01
2019-02-20T12:02:37.492Z,74.01
2019-02-20T12:03:32.703Z,73.52
2019-02-20T12:04:32.793Z,72.96
2019-02-20T12:05:32.886Z,72.96
2019-02-20T12:06:32.987Z,72.38
2019-02-20T12:07:33.081Z,72.38
2019-02-20T12:08:33.174Z,72.28
2019-02-20T12:09:33.268Z,72.48
2019-02-20T12:10:33.361Z,72.67
2019-02-20T12:11:33.454Z,72.09
2019-02-20T12:12:33.552Z,71.91
2019-02-20T12:13:33.633Z,71.81
2019-02-20T12:14:33.724Z,71.18
2019-02-20T12:15:33.817Z,70.98
2019-02-20T12:16:33.909Z,70.67
2019-02-20T12:17:34.010Z,70.28
2019-02-20T12:18:34.089Z,70.51
2019-02-20T12:19:34.212Z,70.32
2019-02-20T12:20:34.301Z,70.51
2019-02-20T12:21:34.400Z,70.61
2019-02-20T12:22:34.485Z,70.42
2019-02-20T12:23:36.741Z,70.22
2019-02-20T12:24:34.673Z,69.65
2019-02-20T12:25:34.771Z,69.37
2019-02-20T12:26:35.309Z,68.41
2019-02-20T12:27:34.960Z,69.27
2019-02-20T12:28:35.051Z,68.32
2019-02-20T12:29:35.148Z,68.03
2019-02-20T12:30:35.245Z,67.83
2019-02-20T12:31:35.342Z,66.50
2019-02-20T12:32:35.436Z,66.12
2019-02-20T12:33:35.531Z,66.02
2019-02-20T12:34:35.621Z,65.64
2019-02-20T12:35:35.716Z,66.22
2019-02-20T12:36:35.806Z,66.78
2019-02-20T12:37:35.910Z,65.96
2019-02-20T12:38:37.215Z,64.62
2019-02-20T12:39:36.096Z,64.53
2019-02-20T12:40:36.182Z,63.76
2019-02-20T12:41:36.280Z,63.48
2019-02-20T12:42:36.369Z,63.29
2019-02-20T12:43:36.460Z,63.67
2019-02-20T12:44:36.556Z,63.86
2019-02-20T12:45:36.678Z,64.28
2019-02-20T12:46:36.749Z,64.09
2019-02-20T12:47:36.837Z,63.60
2019-02-20T12:48:36.935Z,63.03
2019-02-20T12:49:37.023Z,62.84
2019-02-20T12:50:37.124Z,62.65
2019-02-20T12:51:37.217Z,63.03
2019-02-20T12:52:37.301Z,62.65
2019-02-20T12:53:37.391Z,62.27